sensor_id;sensor_type;location;lat;lon;timestamp;pressure;altitude;pressure_sealevel;temperature;humidity
44144;BME280;43510;51.920;4.492;2022-12-10T00:01:59;66132.69;;;2.41;100.00
44144;BME280;43510;51.920;4.492;2022-12-10T00:04:24;66138.59;;;2.44;100.00
44144;BME280;43510;51.920;4.492;2022-12-10T00:06:49;66138.22;;;2.46;100.00
44144;BME280;43510;51.920;4.492;2022-12-10T00:09:17;66138.59;;;2.44;100.00
44144;BME280;43510;51.920;4.492;2022-12-10T00:11:43;66140.06;;;2.43;100.00
44144;BME280;43510;51.920;4.492;2022-12-10T00:14:09;66139.69;;;2.45;100.00
44144;BME280;43510;51.920;4.492;2022-12-10T00:16:36;66142.84;;;2.45;100.00
44144;BME280;43510;51.920;4.492;2022-12-10T00:19:04;66137.09;;;2.45;100.00
44144;BME280;43510;51.920;4.492;2022-12-10T00:21:32;66133.78;;;2.42;100.00
44144;BME280;43510;51.920;4.492;2022-12-10T00:23:58;66128.25;;;2.37;100.00
44144;BME280;43510;51.920;4.492;2022-12-10T00:26:29;66135.28;;;2.41;100.00
44144;BME280;43510;51.920;4.492;2022-12-10T00:28:55;66134.72;;;2.40;100.00
44144;BME280;43510;51.920;4.492;2022-12-10T00:31:28;66134.53;;;2.38;100.00
44144;BME280;43510;51.920;4.492;2022-12-10T00:33:56;66126.03;;;2.35;100.00
44144;BME280;43510;51.920;4.492;2022-12-10T00:36:26;66128.97;;;2.33;100.00
44144;BME280;43510;51.920;4.492;2022-12-10T00:38:53;66135.06;;;2.38;100.00
44144;BME280;43510;51.920;4.492;2022-12-10T00:41:18;66120.88;;;2.28;100.00
44144;BME280;43510;51.920;4.492;2022-12-10T00:43:44;66131.41;;;2.37;100.00
44144;BME280;43510;51.920;4.492;2022-12-10T00:46:11;66124.94;;;2.34;100.00
44144;BME280;43510;51.920;4.492;2022-12-10T00:48:37;66119.41;;;2.29;100.00
44144;BME280;43510;51.920;4.492;2022-12-10T00:51:09;66119.03;;;2.24;100.00
44144;BME280;43510;51.920;4.492;2022-12-10T00:53:37;66130.84;;;2.37;100.00
44144;BME280;43510;51.920;4.492;2022-12-10T00:56:03;66128.63;;;2.35;100.00
44144;BME280;43510;51.920;4.492;2022-12-10T00:58:30;66124.56;;;2.29;100.00
44144;BME280;43510;51.920;4.492;2022-12-10T01:01:22;66133.78;;;2.42;100.00
44144;BME280;43510;51.920;4.492;2022-12-10T01:03:51;66123.81;;;2.33;100.00
44144;BME280;43510;51.920;4.492;2022-12-10T01:06:30;66123.28;;;2.32;100.00
44144;BME280;43510;51.920;4.492;2022-12-10T01:08:58;66133.59;;;2.39;100.00
44144;BME280;43510;51.920;4.492;2022-12-10T01:11:28;66138.59;;;2.44;100.00
44144;BME280;43510;51.920;4.492;2022-12-10T01:13:54;66140.81;;;2.46;100.00
44144;BME280;43510;51.920;4.492;2022-12-10T01:16:21;66141.91;;;2.47;100.00
44144;BME280;43510;51.920;4.492;2022-12-10T01:18:47;66148.19;;;2.55;100.00
44144;BME280;43510;51.920;4.492;2022-12-10T01:21:16;66145.59;;;2.55;100.00
44144;BME280;43510;51.920;4.492;2022-12-10T01:23:43;66146.53;;;2.54;100.00
44144;BME280;43510;51.920;4.492;2022-12-10T01:26:12;66145.97;;;2.53;100.00
44144;BME280;43510;51.920;4.492;2022-12-10T01:28:39;66147.28;;;2.50;100.00
44144;BME280;43510;51.920;4.492;2022-12-10T01:31:14;66148.56;;;2.53;100.00
44144;BME280;43510;51.920;4.492;2022-12-10T01:33:41;66142.09;;;2.50;100.00
44144;BME280;43510;51.920;4.492;2022-12-10T01:36:13;66149.47;;;2.52;100.00
44144;BME280;43510;51.920;4.492;2022-12-10T01:38:39;66149.31;;;2.56;100.00
44144;BME280;43510;51.920;4.492;2022-12-10T01:41:10;66157.22;;;2.59;100.00
44144;BME280;43510;51.920;4.492;2022-12-10T01:46:18;66150.59;;;2.53;100.00
44144;BME280;43510;51.920;4.492;2022-12-10T01:48:44;66143.75;;;2.51;100.00
44144;BME280;43510;51.920;4.492;2022-12-10T01:51:10;66132.50;;;2.38;100.00
44144;BME280;43510;51.920;4.492;2022-12-10T01:53:36;66147.44;;;2.52;100.00
44144;BME280;43510;51.920;4.492;2022-12-10T01:56:02;66147.84;;;2.50;100.00
44144;BME280;43510;51.920;4.492;2022-12-10T01:58:27;66142.66;;;2.50;100.00
44144;BME280;43510;51.920;4.492;2022-12-10T02:01:04;66160.75;;;2.64;100.00
44144;BME280;43510;51.920;4.492;2022-12-10T02:12:00;66153.72;;;2.60;100.00
44144;BME280;43510;51.920;4.492;2022-12-10T02:14:32;66158.91;;;2.60;100.00
44144;BME280;43510;51.920;4.492;2022-12-10T02:17:17;66152.44;;;2.57;100.00
44144;BME280;43510;51.920;4.492;2022-12-10T02:22:36;66153.91;;;2.56;100.00
44144;BME280;43510;51.920;4.492;2022-12-10T02:25:05;66149.13;;;2.54;100.00
44144;BME280;43510;51.920;4.492;2022-12-10T02:27:53;66160.38;;;2.66;100.00
44144;BME280;43510;51.920;4.492;2022-12-10T02:30:21;66150.41;;;2.57;100.00
44144;BME280;43510;51.920;4.492;2022-12-10T02:32:48;66143.75;;;2.51;100.00
44144;BME280;43510;51.920;4.492;2022-12-10T02:35:25;66151.69;;;2.54;100.00
44144;BME280;43510;51.920;4.492;2022-12-10T02:37:55;66161.09;;;2.62;100.00
44144;BME280;43510;51.920;4.492;2022-12-10T02:40:26;66161.66;;;2.63;100.00
44144;BME280;43510;51.920;4.492;2022-12-10T02:42:54;66174.41;;;2.74;100.00
44144;BME280;43510;51.920;4.492;2022-12-10T02:45:22;66160.19;;;2.64;100.00
44144;BME280;43510;51.920;4.492;2022-12-10T02:47:49;66141.53;;;2.49;100.00
44144;BME280;43510;51.920;4.492;2022-12-10T02:50:18;66141.53;;;2.49;100.00
44144;BME280;43510;51.920;4.492;2022-12-10T02:52:44;66148.56;;;2.53;100.00
44144;BME280;43510;51.920;4.492;2022-12-10T02:55:15;66163.69;;;2.69;100.00
44144;BME280;43510;51.920;4.492;2022-12-10T03:00:20;66160.38;;;2.66;100.00
44144;BME280;43510;51.920;4.492;2022-12-10T03:05:32;66174.78;;;2.72;100.00
44144;BME280;43510;51.920;4.492;2022-12-10T03:08:14;66175.34;;;2.80;100.00
44144;BME280;43510;51.920;4.492;2022-12-10T03:13:13;66175.50;;;2.75;100.00
44144;BME280;43510;51.920;4.492;2022-12-10T03:15:41;66166.09;;;2.67;100.00
44144;BME280;43510;51.920;4.492;2022-12-10T03:18:08;66165.72;;;2.69;100.00
44144;BME280;43510;51.920;4.492;2022-12-10T03:20:39;66172.19;;;2.72;100.00
44144;BME280;43510;51.920;4.492;2022-12-10T03:23:09;66167.94;;;2.71;100.00
44144;BME280;43510;51.920;4.492;2022-12-10T03:25:36;66169.97;;;2.70;100.00
44144;BME280;43510;51.920;4.492;2022-12-10T03:28:04;66162.56;;;2.68;100.00
44144;BME280;43510;51.920;4.492;2022-12-10T03:30:31;66163.31;;;2.64;100.00
44144;BME280;43510;51.920;4.492;2022-12-10T03:33:00;66165.34;;;2.71;100.00
44144;BME280;43510;51.920;4.492;2022-12-10T03:35:26;66168.69;;;2.74;100.00
44144;BME280;43510;51.920;4.492;2022-12-10T03:37:52;66172.56;;;2.77;100.00
44144;BME280;43510;51.920;4.492;2022-12-10T03:40:21;66177.16;;;2.77;100.00
44144;BME280;43510;51.920;4.492;2022-12-10T03:42:47;66163.13;;;2.69;100.00
44144;BME280;43510;51.920;4.492;2022-12-10T03:45:17;66166.28;;;2.69;100.00
44144;BME280;43510;51.920;4.492;2022-12-10T03:47:42;66162.03;;;2.68;100.00
44144;BME280;43510;51.920;4.492;2022-12-10T03:50:09;66167.75;;;2.68;100.00
44144;BME280;43510;51.920;4.492;2022-12-10T03:52:35;66168.50;;;2.71;100.00
44144;BME280;43510;51.920;4.492;2022-12-10T03:55:01;66162.97;;;2.66;100.00
44144;BME280;43510;51.920;4.492;2022-12-10T03:57:26;66149.31;;;2.56;100.00
44144;BME280;43510;51.920;4.492;2022-12-10T03:59:52;66152.44;;;2.57;100.00
44144;BME280;43510;51.920;4.492;2022-12-10T04:02:18;66166.66;;;2.67;100.00
44144;BME280;43510;51.920;4.492;2022-12-10T04:04:44;66148.56;;;2.53;100.00
44144;BME280;43510;51.920;4.492;2022-12-10T04:07:09;66167.75;;;2.68;100.00
44144;BME280;43510;51.920;4.492;2022-12-10T04:09:34;66171.09;;;2.71;100.00
44144;BME280;43510;51.920;4.492;2022-12-10T04:12:00;66146.53;;;2.54;100.00
44144;BME280;43510;51.920;4.492;2022-12-10T04:14:27;66160.38;;;2.66;100.00
44144;BME280;43510;51.920;4.492;2022-12-10T04:17:12;66162.41;;;2.66;100.00
44144;BME280;43510;51.920;4.492;2022-12-10T04:19:38;66163.69;;;2.69;100.00
44144;BME280;43510;51.920;4.492;2022-12-10T04:22:04;66171.09;;;2.71;100.00
44144;BME280;43510;51.920;4.492;2022-12-10T04:24:48;66165.34;;;2.71;100.00
44144;BME280;43510;51.920;4.492;2022-12-10T04:27:36;66167.03;;;2.72;100.00
44144;BME280;43510;51.920;4.492;2022-12-10T04:30:06;66171.28;;;2.74;100.00
44144;BME280;43510;51.920;4.492;2022-12-10T04:32:33;66175.50;;;2.75;100.00
44144;BME280;43510;51.920;4.492;2022-12-10T04:34:59;66180.69;;;2.82;100.00
44144;BME280;43510;51.920;4.492;2022-12-10T04:37:24;66184.53;;;2.86;100.00
44144;BME280;43510;51.920;4.492;2022-12-10T04:39:50;66186.59;;;2.85;100.00
44144;BME280;43510;51.920;4.492;2022-12-10T04:42:17;66183.63;;;2.87;100.00
44144;BME280;43510;51.920;4.492;2022-12-10T04:44:42;66185.84;;;2.90;100.00
44144;BME280;43510;51.920;4.492;2022-12-10T04:47:09;66193.97;;;2.95;100.00
44144;BME280;43510;51.920;4.492;2022-12-10T04:49:35;66190.66;;;2.92;100.00
44144;BME280;43510;51.920;4.492;2022-12-10T04:52:02;66179.19;;;2.83;100.00
44144;BME280;43510;51.920;4.492;2022-12-10T04:54:28;66184.19;;;2.81;100.00
44144;BME280;43510;51.920;4.492;2022-12-10T04:56:53;66175.88;;;2.80;100.00
44144;BME280;43510;51.920;4.492;2022-12-10T04:59:19;66170.88;;;2.76;100.00
44144;BME280;43510;51.920;4.492;2022-12-10T05:01:44;66177.53;;;2.82;100.00
44144;BME280;43510;51.920;4.492;2022-12-10T05:04:13;66185.09;;;2.86;100.00
44144;BME280;43510;51.920;4.492;2022-12-10T05:06:39;66183.25;;;2.82;100.00
44144;BME280;43510;51.920;4.492;2022-12-10T05:09:05;66188.59;;;2.92;100.00
44144;BME280;43510;51.920;4.492;2022-12-10T05:11:32;66187.31;;;2.88;100.00
44144;BME280;43510;51.920;4.492;2022-12-10T05:13:58;66189.91;;;2.88;100.00
44144;BME280;43510;51.920;4.492;2022-12-10T05:16:26;66188.06;;;2.92;100.00
44144;BME280;43510;51.920;4.492;2022-12-10T05:18:53;66172.00;;;2.77;100.00
44144;BME280;43510;51.920;4.492;2022-12-10T05:21:20;66179.19;;;2.83;100.00
44144;BME280;43510;51.920;4.492;2022-12-10T05:23:48;66186.22;;;2.87;100.00
44144;BME280;43510;51.920;4.492;2022-12-10T05:26:18;66185.84;;;2.90;100.00
44144;BME280;43510;51.920;4.492;2022-12-10T05:28:50;66182.50;;;2.86;100.00
44144;BME280;43510;51.920;4.492;2022-12-10T05:31:22;66173.66;;;2.78;100.00
44144;BME280;43510;51.920;4.492;2022-12-10T05:33:48;66192.31;;;2.93;100.00
44144;BME280;43510;51.920;4.492;2022-12-10T05:36:16;66193.78;;;2.92;100.00
44144;BME280;43510;51.920;4.492;2022-12-10T05:38:42;66185.28;;;2.89;100.00
44144;BME280;43510;51.920;4.492;2022-12-10T05:41:20;66191.03;;;2.90;100.00
44144;BME280;43510;51.920;4.492;2022-12-10T05:43:46;66174.03;;;2.76;100.00
44144;BME280;43510;51.920;4.492;2022-12-10T05:46:18;66183.81;;;2.83;100.00
44144;BME280;43510;51.920;4.492;2022-12-10T05:48:44;66165.72;;;2.69;100.00
44144;BME280;43510;51.920;4.492;2022-12-10T05:51:15;66170.34;;;2.75;100.00
44144;BME280;43510;51.920;4.492;2022-12-10T05:53:43;66171.09;;;2.71;100.00
44144;BME280;43510;51.920;4.492;2022-12-10T05:56:15;66174.41;;;2.74;100.00
44144;BME280;43510;51.920;4.492;2022-12-10T05:58:41;66211.69;;;3.11;100.00
44144;BME280;43510;51.920;4.492;2022-12-10T06:01:10;66182.16;;;2.81;100.00
44144;BME280;43510;51.920;4.492;2022-12-10T06:03:36;66176.44;;;2.81;100.00
44144;BME280;43510;51.920;4.492;2022-12-10T06:06:03;66170.34;;;2.75;100.00
44144;BME280;43510;51.920;4.492;2022-12-10T06:08:28;66173.66;;;2.78;100.00
44144;BME280;43510;51.920;4.492;2022-12-10T06:10:55;66189.53;;;2.91;100.00
44144;BME280;43510;51.920;4.492;2022-12-10T06:13:23;66180.50;;;2.80;100.00
44144;BME280;43510;51.920;4.492;2022-12-10T06:15:49;66187.31;;;2.88;100.00
44144;BME280;43510;51.920;4.492;2022-12-10T06:18:14;66175.88;;;2.80;100.00
44144;BME280;43510;51.920;4.492;2022-12-10T06:20:40;66180.88;;;2.85;100.00
44144;BME280;43510;51.920;4.492;2022-12-10T06:23:06;66166.66;;;2.67;100.00
44144;BME280;43510;51.920;4.492;2022-12-10T06:25:32;66165.34;;;2.71;100.00
44144;BME280;43510;51.920;4.492;2022-12-10T06:27:58;66157.59;;;2.64;100.00
44144;BME280;43510;51.920;4.492;2022-12-10T06:30:23;66166.81;;;2.70;100.00
44144;BME280;43510;51.920;4.492;2022-12-10T06:32:49;66152.06;;;2.59;100.00
44144;BME280;43510;51.920;4.492;2022-12-10T06:35:14;66174.03;;;2.76;100.00
44144;BME280;43510;51.920;4.492;2022-12-10T06:37:40;66172.56;;;2.77;100.00
44144;BME280;43510;51.920;4.492;2022-12-10T06:40:05;66175.69;;;2.78;100.00
44144;BME280;43510;51.920;4.492;2022-12-10T06:42:31;66187.88;;;2.89;100.00
44144;BME280;43510;51.920;4.492;2022-12-10T06:44:57;66177.38;;;2.79;100.00
44144;BME280;43510;51.920;4.492;2022-12-10T06:47:22;66193.25;;;2.92;100.00
44144;BME280;43510;51.920;4.492;2022-12-10T06:49:48;66184.00;;;2.85;100.00
44144;BME280;43510;51.920;4.492;2022-12-10T06:52:15;66188.06;;;2.92;100.00
44144;BME280;43510;51.920;4.492;2022-12-10T06:54:40;66199.34;;;2.97;100.00
44144;BME280;43510;51.920;4.492;2022-12-10T06:57:07;66192.13;;;2.91;100.00
44144;BME280;43510;51.920;4.492;2022-12-10T06:59:32;66192.13;;;2.91;100.00
44144;BME280;43510;51.920;4.492;2022-12-10T07:01:58;66191.56;;;2.90;100.00
44144;BME280;43510;51.920;4.492;2022-12-10T07:04:23;66185.28;;;2.89;100.00
44144;BME280;43510;51.920;4.492;2022-12-10T07:06:49;66182.50;;;2.86;100.00
44144;BME280;43510;51.920;4.492;2022-12-10T07:09:14;66199.91;;;2.98;100.00
44144;BME280;43510;51.920;4.492;2022-12-10T07:11:41;66178.09;;;2.82;100.00
44144;BME280;43510;51.920;4.492;2022-12-10T07:14:06;66193.59;;;2.97;100.00
44144;BME280;43510;51.920;4.492;2022-12-10T07:16:32;66203.22;;;3.01;100.00
44144;BME280;43510;51.920;4.492;2022-12-10T07:19:00;66196.91;;;3.00;100.00
44144;BME280;43510;51.920;4.492;2022-12-10T07:21:34;66206.16;;;3.06;100.00
44144;BME280;43510;51.920;4.492;2022-12-10T07:24:06;66181.97;;;2.86;100.00
44144;BME280;43510;51.920;4.492;2022-12-10T07:26:35;66212.09;;;3.09;100.00
44144;BME280;43510;51.920;4.492;2022-12-10T07:29:02;66196.91;;;3.00;100.00
44144;BME280;43510;51.920;4.492;2022-12-10T07:31:35;66186.03;;;2.92;100.00
44144;BME280;43510;51.920;4.492;2022-12-10T07:34:01;66179.56;;;2.81;100.00
44144;BME280;43510;51.920;4.492;2022-12-10T07:36:28;66179.75;;;2.84;100.00
44144;BME280;43510;51.920;4.492;2022-12-10T07:38:54;66172.91;;;2.75;100.00
44144;BME280;43510;51.920;4.492;2022-12-10T07:41:22;66176.81;;;2.79;100.00
44144;BME280;43510;51.920;4.492;2022-12-10T07:43:48;66160.00;;;2.68;100.00
44144;BME280;43510;51.920;4.492;2022-12-10T07:46:30;66184.38;;;2.83;100.00
44144;BME280;43510;51.920;4.492;2022-12-10T07:48:55;66173.31;;;2.73;100.00
44144;BME280;43510;51.920;4.492;2022-12-10T07:51:21;66164.25;;;2.70;100.00
44144;BME280;43510;51.920;4.492;2022-12-10T07:53:52;66159.63;;;2.63;100.00
44144;BME280;43510;51.920;4.492;2022-12-10T07:56:19;66159.63;;;2.63;100.00
44144;BME280;43510;51.920;4.492;2022-12-10T07:58:45;66162.78;;;2.64;100.00
44144;BME280;43510;51.920;4.492;2022-12-10T08:01:14;66163.50;;;2.67;100.00
44144;BME280;43510;51.920;4.492;2022-12-10T08:03:41;66160.00;;;2.61;100.00
44144;BME280;43510;51.920;4.492;2022-12-10T08:06:09;66151.50;;;2.58;100.00
44144;BME280;43510;51.920;4.492;2022-12-10T08:08:35;66154.09;;;2.58;100.00
44144;BME280;43510;51.920;4.492;2022-12-10T08:11:02;66143.38;;;2.53;100.00
44144;BME280;43510;51.920;4.492;2022-12-10T08:13:28;66147.28;;;2.50;100.00
44144;BME280;43510;51.920;4.492;2022-12-10T08:15:54;66138.59;;;2.44;100.00
44144;BME280;43510;51.920;4.492;2022-12-10T08:18:20;66134.16;;;2.40;100.00
44144;BME280;43510;51.920;4.492;2022-12-10T08:20:45;66139.31;;;2.47;100.00
44144;BME280;43510;51.920;4.492;2022-12-10T08:23:11;66145.59;;;2.48;100.00
44144;BME280;43510;51.920;4.492;2022-12-10T08:25:37;66128.25;;;2.37;100.00
44144;BME280;43510;51.920;4.492;2022-12-10T08:28:02;66134.16;;;2.40;100.00
44144;BME280;43510;51.920;4.492;2022-12-10T08:30:29;66146.88;;;2.52;100.00
44144;BME280;43510;51.920;4.492;2022-12-10T08:32:54;66150.94;;;2.58;100.00
44144;BME280;43510;51.920;4.492;2022-12-10T08:35:20;66156.31;;;2.60;100.00
44144;BME280;43510;51.920;4.492;2022-12-10T08:37:45;66162.56;;;2.68;100.00
44144;BME280;43510;51.920;4.492;2022-12-10T08:40:11;66170.72;;;2.73;100.00
44144;BME280;43510;51.920;4.492;2022-12-10T08:42:37;66170.72;;;2.73;100.00
44144;BME280;43510;51.920;4.492;2022-12-10T08:45:03;66168.69;;;2.74;100.00
44144;BME280;43510;51.920;4.492;2022-12-10T08:47:30;66165.00;;;2.73;100.00
44144;BME280;43510;51.920;4.492;2022-12-10T08:49:55;66174.03;;;2.76;100.00
44144;BME280;43510;51.920;4.492;2022-12-10T08:52:21;66169.22;;;2.74;100.00
44144;BME280;43510;51.920;4.492;2022-12-10T08:54:46;66179.94;;;2.79;100.00
44144;BME280;43510;51.920;4.492;2022-12-10T08:57:11;66160.53;;;2.69;100.00
44144;BME280;43510;51.920;4.492;2022-12-10T08:59:37;66164.25;;;2.70;100.00
44144;BME280;43510;51.920;4.492;2022-12-10T09:02:02;66173.47;;;2.76;100.00
44144;BME280;43510;51.920;4.492;2022-12-10T09:04:27;66175.50;;;2.75;100.00
44144;BME280;43510;51.920;4.492;2022-12-10T09:06:53;66177.91;;;2.80;100.00
44144;BME280;43510;51.920;4.492;2022-12-10T09:09:18;66183.06;;;2.87;100.00
44144;BME280;43510;51.920;4.492;2022-12-10T09:11:44;66193.25;;;2.92;100.00
44144;BME280;43510;51.920;4.492;2022-12-10T09:14:12;66188.25;;;2.87;100.00
44144;BME280;43510;51.920;4.492;2022-12-10T09:16:38;66186.97;;;2.91;100.00
44144;BME280;43510;51.920;4.492;2022-12-10T09:19:07;66185.84;;;2.90;100.00
44144;BME280;43510;51.920;4.492;2022-12-10T09:21:33;66184.19;;;2.88;100.00
44144;BME280;43510;51.920;4.492;2022-12-10T09:23:59;66185.50;;;2.84;100.00
44144;BME280;43510;51.920;4.492;2022-12-10T09:26:25;66162.97;;;2.66;100.00
44144;BME280;43510;51.920;4.492;2022-12-10T09:28:51;66156.47;;;2.63;100.00
44144;BME280;43510;51.920;4.492;2022-12-10T09:31:19;66154.84;;;2.61;100.00
44144;BME280;43510;51.920;4.492;2022-12-10T09:33:46;66145.41;;;2.53;100.00
44144;BME280;43510;51.920;4.492;2022-12-10T09:36:13;66151.34;;;2.56;100.00
44144;BME280;43510;51.920;4.492;2022-12-10T09:38:42;66152.44;;;2.57;100.00
44144;BME280;43510;51.920;4.492;2022-12-10T09:46:55;66139.53;;;2.50;100.00
44144;BME280;43510;51.920;4.492;2022-12-10T09:51:59;66133.78;;;2.42;100.00
44144;BME280;43510;51.920;4.492;2022-12-10T09:54:38;66141.34;;;2.46;100.00
44144;BME280;43510;51.920;4.492;2022-12-10T09:57:13;66145.25;;;2.50;100.00
44144;BME280;43510;51.920;4.492;2022-12-10T09:59:48;66141.72;;;2.52;100.00
44144;BME280;43510;51.920;4.492;2022-12-10T10:02:26;66147.63;;;2.55;100.00
44144;BME280;43510;51.920;4.492;2022-12-10T10:05:10;66141.91;;;2.47;100.00
44144;BME280;43510;51.920;4.492;2022-12-10T10:07:44;66143.03;;;2.48;100.00
44144;BME280;43510;51.920;4.492;2022-12-10T10:12:46;66144.84;;;2.52;100.00
44144;BME280;43510;51.920;4.492;2022-12-10T10:15:16;66157.03;;;2.63;100.00
44144;BME280;43510;51.920;4.492;2022-12-10T10:17:43;66157.44;;;2.61;100.00
44144;BME280;43510;51.920;4.492;2022-12-10T10:20:12;66156.31;;;2.60;100.00
44144;BME280;43510;51.920;4.492;2022-12-10T10:22:39;66164.44;;;2.65;100.00
44144;BME280;43510;51.920;4.492;2022-12-10T10:25:06;66155.56;;;2.64;100.00
44144;BME280;43510;51.920;4.492;2022-12-10T10:27:37;66170.34;;;2.75;100.00
44144;BME280;43510;51.920;4.492;2022-12-10T10:30:03;66172.56;;;2.77;100.00
44144;BME280;43510;51.920;4.492;2022-12-10T10:35:01;66172.56;;;2.77;100.00
44144;BME280;43510;51.920;4.492;2022-12-10T10:37:30;66171.44;;;2.76;100.00
44144;BME280;43510;51.920;4.492;2022-12-10T10:39:57;66169.41;;;2.70;100.00
44144;BME280;43510;51.920;4.492;2022-12-10T10:42:38;66162.03;;;2.68;100.00
44144;BME280;43510;51.920;4.492;2022-12-10T10:50:39;66133.78;;;2.42;100.00
44144;BME280;43510;51.920;4.492;2022-12-10T10:53:29;66146.34;;;2.51;100.00
44144;BME280;43510;51.920;4.492;2022-12-10T10:55:58;66137.28;;;2.40;100.00
44144;BME280;43510;51.920;4.492;2022-12-10T10:58:24;66145.25;;;2.50;100.00
44144;BME280;43510;51.920;4.492;2022-12-10T11:00:56;66155.56;;;2.57;100.00
44144;BME280;43510;51.920;4.492;2022-12-10T11:03:23;66157.97;;;2.62;100.00
44144;BME280;43510;51.920;4.492;2022-12-10T11:05:49;66161.28;;;2.65;100.00
44144;BME280;43510;51.920;4.492;2022-12-10T11:08:18;66160.94;;;2.67;100.00
44144;BME280;43510;51.920;4.492;2022-12-10T11:10:50;66149.13;;;2.54;100.00
44144;BME280;43510;51.920;4.492;2022-12-10T11:13:24;66151.34;;;2.56;100.00
44144;BME280;43510;51.920;4.492;2022-12-10T11:16:28;66154.09;;;2.58;100.00
44144;BME280;43510;51.920;4.492;2022-12-10T11:18:56;66151.50;;;2.58;100.00
44144;BME280;43510;51.920;4.492;2022-12-10T11:21:27;66138.22;;;2.46;100.00
44144;BME280;43510;51.920;4.492;2022-12-10T11:23:55;66150.59;;;2.53;100.00
44144;BME280;43510;51.920;4.492;2022-12-10T11:32:37;66165.16;;;2.68;100.00
44144;BME280;43510;51.920;4.492;2022-12-10T11:35:13;66163.31;;;2.64;100.00
44144;BME280;43510;51.920;4.492;2022-12-10T11:45:20;66168.50;;;2.71;100.00
44144;BME280;43510;51.920;4.492;2022-12-10T11:50:48;66191.94;;;2.95;100.00
44144;BME280;43510;51.920;4.492;2022-12-10T11:56:15;66206.91;;;3.09;100.00
44144;BME280;43510;51.920;4.492;2022-12-10T12:09:40;66195.25;;;2.98;100.00
44144;BME280;43510;51.920;4.492;2022-12-10T12:14:48;66197.31;;;2.98;100.00
44144;BME280;43510;51.920;4.492;2022-12-10T12:19:53;66195.44;;;2.94;100.00
44144;BME280;43510;51.920;4.492;2022-12-10T12:22:27;66201.38;;;3.04;100.00
44144;BME280;43510;51.920;4.492;2022-12-10T12:24:57;66203.41;;;3.03;100.00
44144;BME280;43510;51.920;4.492;2022-12-10T12:27:41;66210.22;;;3.12;100.00
44144;BME280;43510;51.920;4.492;2022-12-10T12:30:18;66206.72;;;3.06;100.00
44144;BME280;43510;51.920;4.492;2022-12-10T12:33:10;66209.09;;;3.11;100.00
44144;BME280;43510;51.920;4.492;2022-12-10T12:38:31;66221.28;;;3.22;100.00
44144;BME280;43510;51.920;4.492;2022-12-10T12:44:00;66213.56;;;3.15;100.00
44144;BME280;43510;51.920;4.492;2022-12-10T12:46:58;66215.03;;;3.14;100.00
44144;BME280;43510;51.920;4.492;2022-12-10T12:49:34;66196.56;;;2.95;100.00
44144;BME280;43510;51.920;4.492;2022-12-10T12:52:03;66186.41;;;2.90;100.00
44144;BME280;43510;51.920;4.492;2022-12-10T12:54:33;66188.44;;;2.90;100.00
44144;BME280;43510;51.920;4.492;2022-12-10T13:00:10;66209.09;;;3.11;100.00
44144;BME280;43510;51.920;4.492;2022-12-10T13:05:30;66201.72;;;3.09;100.00
44144;BME280;43510;51.920;4.492;2022-12-10T13:13:40;66208.19;;;3.12;100.00
44144;BME280;43510;51.920;4.492;2022-12-10T13:37:36;66240.31;;;3.35;100.00
44144;BME280;43510;51.920;4.492;2022-12-10T13:42:34;66247.53;;;3.41;100.00
44144;BME280;43510;51.920;4.492;2022-12-10T13:47:51;66251.22;;;3.49;100.00
44144;BME280;43510;51.920;4.492;2022-12-10T14:06:55;66242.34;;;3.41;100.00
44144;BME280;43510;51.920;4.492;2022-12-10T14:09:32;66248.09;;;3.42;100.00
44144;BME280;43510;51.920;4.492;2022-12-10T14:15:04;66236.47;;;3.31;100.00
44144;BME280;43510;51.920;4.492;2022-12-10T14:17:32;66220.75;;;3.21;100.00
44144;BME280;43510;51.920;4.492;2022-12-10T14:19:59;66225.19;;;3.25;100.00
44144;BME280;43510;51.920;4.492;2022-12-10T14:22:38;66236.25;;;3.36;100.00
44144;BME280;43510;51.920;4.492;2022-12-10T14:25:10;66226.28;;;3.26;100.00
44144;BME280;43510;51.920;4.492;2022-12-10T14:27:37;66231.28;;;3.31;100.00
44144;BME280;43510;51.920;4.492;2022-12-10T14:30:24;66234.06;;;3.34;100.00
44144;BME280;43510;51.920;4.492;2022-12-10T14:32:54;66236.66;;;3.34;100.00
44144;BME280;43510;51.920;4.492;2022-12-10T14:35:24;66240.53;;;3.37;100.00
44144;BME280;43510;51.920;4.492;2022-12-10T14:37:50;66253.47;;;3.51;100.00
44144;BME280;43510;51.920;4.492;2022-12-10T14:40:23;66262.69;;;3.57;100.00
44144;BME280;43510;51.920;4.492;2022-12-10T14:42:52;66265.09;;;3.62;100.00
44144;BME280;43510;51.920;4.492;2022-12-10T14:45:20;66262.31;;;3.59;100.00
44144;BME280;43510;51.920;4.492;2022-12-10T14:47:47;66259.00;;;3.56;100.00
44144;BME280;43510;51.920;4.492;2022-12-10T14:50:15;66261.38;;;3.61;100.00
44144;BME280;43510;51.920;4.492;2022-12-10T14:52:50;66267.69;;;3.62;100.00
44144;BME280;43510;51.920;4.492;2022-12-10T14:55:19;66264.53;;;3.61;100.00
44144;BME280;43510;51.920;4.492;2022-12-10T14:57:51;66266.38;;;3.65;100.00
44144;BME280;43510;51.920;4.492;2022-12-10T15:00:21;66271.19;;;3.67;100.00
44144;BME280;43510;51.920;4.492;2022-12-10T15:02:52;66269.16;;;3.68;100.00
44144;BME280;43510;51.920;4.492;2022-12-10T15:05:24;66276.16;;;3.72;100.00
44144;BME280;43510;51.920;4.492;2022-12-10T15:08:02;66278.75;;;3.72;100.00
44144;BME280;43510;51.920;4.492;2022-12-10T15:10:39;66283.19;;;3.76;100.00
44144;BME280;43510;51.920;4.492;2022-12-10T15:13:13;66268.75;;;3.70;100.00
44144;BME280;43510;51.920;4.492;2022-12-10T15:15:48;66276.34;;;3.75;100.00
44144;BME280;43510;51.920;4.492;2022-12-10T15:18:41;66292.81;;;3.87;100.00
44144;BME280;43510;51.920;4.492;2022-12-10T15:21:14;66290.41;;;3.83;100.00
44144;BME280;43510;51.920;4.492;2022-12-10T15:23:41;66286.16;;;3.81;100.00
44144;BME280;43510;51.920;4.492;2022-12-10T15:28:42;66285.41;;;3.78;100.00
44144;BME280;43510;51.920;4.492;2022-12-10T15:36:35;66296.31;;;3.86;100.00
44144;BME280;43510;51.920;4.492;2022-12-10T15:39:19;66280.03;;;3.76;100.00